createdAt,value
2023-04-22T00:00:36.616Z,0.57
2023-04-22T00:01:36.589Z,0.55
2023-04-22T00:02:36.744Z,0.53
2023-04-22T00:03:36.993Z,0.55
2023-04-22T00:04:37.112Z,0.56
2023-04-22T00:05:36.789Z,0.54
2023-04-22T00:06:36.829Z,0.54
2023-04-22T00:07:36.860Z,0.55
2023-04-22T00:08:36.906Z,0.55
2023-04-22T00:09:37.136Z,0.53
2023-04-22T00:10:36.984Z,0.53
2023-04-22T00:11:37.027Z,0.53
2023-04-22T00:12:37.055Z,0.54
2023-04-22T00:13:37.156Z,0.53
2023-04-22T00:14:37.183Z,0.53
2023-04-22T00:15:37.200Z,0.55
2023-04-22T00:16:37.336Z,0.54
2023-04-22T00:17:37.466Z,0.52
2023-04-22T00:18:37.300Z,0.55
2023-04-22T00:19:37.657Z,0.54
2023-04-22T00:20:37.382Z,0.54
2023-04-22T00:21:37.413Z,0.53
2023-04-22T00:22:37.453Z,0.53
2023-04-22T00:23:37.500Z,0.54
2023-04-22T00:24:37.489Z,0.55
2023-04-22T00:25:37.539Z,0.53
2023-04-22T00:26:37.546Z,0.54
2023-04-22T00:27:37.561Z,0.52
2023-04-22T00:28:37.622Z,0.54
2023-04-22T00:29:37.808Z,0.54
2023-04-22T00:30:37.634Z,0.54
2023-04-22T00:31:37.710Z,0.53
2023-04-22T00:32:37.681Z,0.56
2023-04-22T00:33:37.619Z,0.54
2023-04-22T00:34:37.615Z,0.53
2023-04-22T00:35:37.634Z,0.53
2023-04-22T00:36:37.624Z,0.54
2023-04-22T00:37:37.664Z,0.55
2023-04-22T00:38:37.602Z,0.52
2023-04-22T00:39:37.945Z,0.50
2023-04-22T00:40:37.640Z,0.53
2023-04-22T00:41:37.648Z,0.51
2023-04-22T00:42:37.673Z,0.50
2023-04-22T00:43:37.641Z,0.52
2023-04-22T00:44:37.623Z,0.54
2023-04-22T00:45:37.653Z,0.54
2023-04-22T00:46:37.712Z,0.55
2023-04-22T00:47:37.638Z,0.53
2023-04-22T00:48:37.637Z,0.55
2023-04-22T00:49:38.074Z,0.55
2023-04-22T00:50:37.707Z,0.55
2023-04-22T00:51:37.712Z,0.53
2023-04-22T00:52:37.686Z,0.53
2023-04-22T00:53:37.707Z,0.53
2023-04-22T00:54:37.693Z,0.52
2023-04-22T00:55:37.718Z,0.53
2023-04-22T00:56:37.694Z,0.54
2023-04-22T00:57:37.681Z,0.54
2023-04-22T00:58:37.655Z,0.56
2023-04-22T00:59:37.893Z,0.55
2023-04-22T01:00:37.727Z,0.56
2023-04-22T01:01:37.670Z,0.58
2023-04-22T01:02:37.778Z,0.56
2023-04-22T01:03:37.878Z,0.57
2023-04-22T01:04:37.670Z,0.55
2023-04-22T01:05:37.668Z,0.54
2023-04-22T01:06:37.638Z,0.54
2023-04-22T01:07:37.646Z,0.54
2023-04-22T01:08:37.656Z,0.54
2023-04-22T01:09:37.892Z,0.55
2023-04-22T01:10:37.661Z,0.53
2023-04-22T01:11:37.657Z,0.54
2023-04-22T01:12:37.648Z,0.52
2023-04-22T01:13:37.640Z,0.55
2023-04-22T01:14:37.655Z,0.56
2023-04-22T01:15:37.671Z,0.55
2023-04-22T01:16:37.728Z,0.57
2023-04-22T01:17:37.699Z,0.57
2023-04-22T01:18:37.617Z,0.57
2023-04-22T01:19:38.025Z,0.58
2023-04-22T01:20:37.628Z,0.56
2023-04-22T01:21:37.623Z,0.56
2023-04-22T01:22:37.620Z,0.54
2023-04-22T01:23:37.610Z,0.56
2023-04-22T01:24:37.600Z,0.56
2023-04-22T01:25:37.636Z,0.56
2023-04-22T01:26:37.624Z,0.56
2023-04-22T01:27:37.629Z,0.55
2023-04-22T01:28:37.592Z,0.54
2023-04-22T01:29:37.859Z,0.56
2023-04-22T01:30:37.619Z,0.55
2023-04-22T01:31:37.668Z,0.53
2023-04-22T01:32:37.672Z,0.54
2023-04-22T01:33:37.596Z,0.55
2023-04-22T01:34:37.618Z,0.54
2023-04-22T01:35:37.637Z,0.55
2023-04-22T01:36:37.616Z,0.54
2023-04-22T01:37:37.658Z,0.54
2023-04-22T01:38:37.633Z,0.55
2023-04-22T01:39:37.955Z,0.54
2023-04-22T01:40:37.635Z,0.54
2023-04-22T01:41:37.639Z,0.53
2023-04-22T01:42:37.677Z,0.51
2023-04-22T01:43:37.691Z,0.53
2023-04-22T01:44:37.663Z,0.53
2023-04-22T01:45:37.726Z,0.54
2023-04-22T01:46:37.803Z,0.52
2023-04-22T01:47:37.732Z,0.53
2023-04-22T01:48:37.719Z,0.53
2023-04-22T01:49:38.126Z,0.57
2023-04-22T01:50:37.774Z,0.55
2023-04-22T01:51:37.740Z,0.53
2023-04-22T01:52:37.744Z,0.54
2023-04-22T01:53:37.772Z,0.58
2023-04-22T01:54:37.778Z,0.57
2023-04-22T01:55:37.808Z,0.58
2023-04-22T01:56:37.798Z,0.58
2023-04-22T01:57:37.818Z,0.57
2023-04-22T01:58:37.834Z,0.55
2023-04-22T01:59:38.026Z,0.54
2023-04-22T02:00:37.849Z,0.55
2023-04-22T02:01:37.867Z,0.53
2023-04-22T02:02:37.913Z,0.54
2023-04-22T02:03:37.876Z,0.52
2023-04-22T02:04:38.020Z,0.54
2023-04-22T02:05:37.874Z,0.54
2023-04-22T02:06:37.907Z,0.52
2023-04-22T02:07:37.908Z,0.52
2023-04-22T02:08:37.903Z,0.53
2023-04-22T02:09:38.164Z,0.52
2023-04-22T02:10:37.953Z,0.52
2023-04-22T02:11:37.954Z,0.51
2023-04-22T02:12:37.964Z,0.51
2023-04-22T02:13:37.962Z,0.52
2023-04-22T02:14:37.984Z,0.53
2023-04-22T02:15:38.038Z,0.52
2023-04-22T02:16:38.046Z,0.52
2023-04-22T02:17:38.140Z,0.53
2023-04-22T02:18:38.075Z,0.53
2023-04-22T02:19:38.600Z,0.54
2023-04-22T02:20:38.084Z,0.55
2023-04-22T02:21:38.099Z,0.55
2023-04-22T02:22:38.067Z,0.55
2023-04-22T02:23:38.095Z,0.56
2023-04-22T02:24:38.114Z,0.55
2023-04-22T02:25:38.151Z,0.54
2023-04-22T02:26:38.145Z,0.55
2023-04-22T02:27:38.146Z,0.54
2023-04-22T02:28:38.179Z,0.53
2023-04-22T02:29:38.324Z,0.51
2023-04-22T02:30:38.229Z,0.53
2023-04-22T02:31:38.260Z,0.51
2023-04-22T02:32:38.339Z,0.51
2023-04-22T02:33:38.277Z,0.52
2023-04-22T02:34:38.308Z,0.52
2023-04-22T02:35:38.304Z,0.52
2023-04-22T02:36:38.356Z,0.50
2023-04-22T02:37:38.370Z,0.53
2023-04-22T02:38:38.416Z,0.52
2023-04-22T02:39:38.795Z,0.51
2023-04-22T02:40:38.580Z,0.52
2023-04-22T02:41:38.503Z,0.52
2023-04-22T02:42:38.552Z,0.51
2023-04-22T02:43:38.535Z,0.52
2023-04-22T02:44:38.552Z,0.52
2023-04-22T02:45:38.601Z,0.52
2023-04-22T02:46:38.672Z,0.50
2023-04-22T02:47:38.661Z,0.53
2023-04-22T02:48:38.658Z,0.52
2023-04-22T02:49:38.948Z,0.52
2023-04-22T02:50:38.701Z,0.52
2023-04-22T02:51:38.725Z,0.52
2023-04-22T02:52:38.723Z,0.52
2023-04-22T02:53:38.769Z,0.51
2023-04-22T02:54:38.790Z,0.51
2023-04-22T02:55:38.802Z,0.51
2023-04-22T02:56:38.842Z,0.53
2023-04-22T02:57:38.850Z,0.52
2023-04-22T02:58:38.860Z,0.51
2023-04-22T02:59:39.106Z,0.53
2023-04-22T03:00:38.919Z,0.52
2023-04-22T03:01:38.907Z,0.52
2023-04-22T03:02:39.830Z,0.52
2023-04-22T03:03:39.206Z,0.51
2023-04-22T03:04:39.045Z,0.53
2023-04-22T03:05:39.075Z,0.53
2023-04-22T03:06:39.071Z,0.50
2023-04-22T03:07:39.108Z,0.52
2023-04-22T03:08:39.155Z,0.52
2023-04-22T03:09:39.423Z,0.51
2023-04-22T03:10:39.213Z,0.51
2023-04-22T03:11:39.224Z,0.50
2023-04-22T03:12:39.232Z,0.52
2023-04-22T03:13:39.300Z,0.51
2023-04-22T03:14:39.327Z,0.52
2023-04-22T03:15:39.361Z,0.53
2023-04-22T03:16:39.409Z,0.52
2023-04-22T03:17:39.406Z,0.51
2023-04-22T03:18:39.430Z,0.52
2023-04-22T03:19:39.772Z,0.52
2023-04-22T03:20:39.480Z,0.51
2023-04-22T03:21:39.479Z,0.50
2023-04-22T03:22:39.503Z,0.52
2023-04-22T03:23:39.549Z,0.51
2023-04-22T03:24:39.565Z,0.51
2023-04-22T03:25:39.614Z,0.51
2023-04-22T03:26:39.624Z,0.50
2023-04-22T03:27:39.629Z,0.50
2023-04-22T03:28:39.688Z,0.52
2023-04-22T03:29:39.846Z,0.52
2023-04-22T03:30:39.741Z,0.51
2023-04-22T03:31:39.837Z,0.51
2023-04-22T03:32:39.836Z,0.50
2023-04-22T03:33:39.842Z,0.51
2023-04-22T03:34:39.860Z,0.51
2023-04-22T03:35:39.940Z,0.51
2023-04-22T03:36:39.977Z,0.52
2023-04-22T03:37:39.969Z,0.53
2023-04-22T03:38:40.030Z,0.52
2023-04-22T03:39:40.312Z,0.51
2023-04-22T03:40:40.124Z,0.50
2023-04-22T03:41:40.137Z,0.51
2023-04-22T03:42:40.159Z,0.51
2023-04-22T03:43:40.261Z,0.51
2023-04-22T03:44:40.246Z,0.50
2023-04-22T03:45:40.330Z,0.52
2023-04-22T03:46:40.351Z,0.52
2023-04-22T03:47:40.404Z,0.51
2023-04-22T03:48:40.429Z,0.52
2023-04-22T03:49:40.868Z,0.52
2023-04-22T03:50:40.566Z,0.51
2023-04-22T03:51:40.546Z,0.51
2023-04-22T03:52:40.605Z,0.52
2023-04-22T03:53:40.642Z,0.51
2023-04-22T03:54:40.661Z,0.52
2023-04-22T03:55:40.746Z,0.52
2023-04-22T03:56:40.756Z,0.53
2023-04-22T03:57:40.768Z,0.52
2023-04-22T03:58:40.834Z,0.53
2023-04-22T03:59:41.155Z,0.51
2023-04-22T04:00:40.935Z,0.51
2023-04-22T04:01:40.952Z,0.52
2023-04-22T04:02:41.175Z,0.52
2023-04-22T04:03:41.296Z,0.52
2023-04-22T04:04:41.273Z,0.51
2023-04-22T04:05:41.204Z,0.51
2023-04-22T04:06:41.177Z,0.51
2023-04-22T04:07:41.215Z,0.51
2023-04-22T04:08:41.282Z,0.51
2023-04-22T04:09:41.652Z,0.52
2023-04-22T04:10:41.347Z,0.52
2023-04-22T04:11:41.405Z,0.52
2023-04-22T04:12:41.429Z,0.51
2023-04-22T04:13:41.475Z,0.51
2023-04-22T04:14:41.533Z,0.52
2023-04-22T04:15:41.680Z,0.53
2023-04-22T04:16:41.571Z,0.52
2023-04-22T04:17:41.690Z,0.52
2023-04-22T04:18:41.664Z,0.53
2023-04-22T04:19:42.158Z,0.51
2023-04-22T04:20:41.768Z,0.53
2023-04-22T04:21:41.806Z,0.53
2023-04-22T04:22:41.836Z,0.53
2023-04-22T04:23:41.862Z,0.52
2023-04-22T04:24:42.115Z,0.53
2023-04-22T04:25:41.965Z,0.52
2023-04-22T04:26:41.981Z,0.52
2023-04-22T04:27:42.058Z,0.52
2023-04-22T04:28:42.086Z,0.52
2023-04-22T04:29:42.448Z,0.52
2023-04-22T04:30:42.214Z,0.52
2023-04-22T04:31:42.349Z,0.51
2023-04-22T04:32:42.308Z,0.51
2023-04-22T04:33:42.270Z,0.52
2023-04-22T04:34:42.317Z,0.51
2023-04-22T04:35:42.358Z,0.52
2023-04-22T04:36:42.394Z,0.51
2023-04-22T04:37:42.438Z,0.51
2023-04-22T04:38:42.460Z,0.52
2023-04-22T04:39:42.692Z,0.52
2023-04-22T04:40:42.589Z,0.51
2023-04-22T04:41:42.591Z,0.52
2023-04-22T04:42:42.700Z,0.52
2023-04-22T04:43:42.672Z,0.52
2023-04-22T04:44:42.730Z,0.52
2023-04-22T04:45:42.772Z,0.53
2023-04-22T04:46:42.937Z,0.52
2023-04-22T04:47:42.897Z,0.52
2023-04-22T04:48:42.849Z,0.51
2023-04-22T04:49:43.013Z,0.51
2023-04-22T04:50:43.026Z,0.51
2023-04-22T04:51:43.008Z,0.52
2023-04-22T04:52:43.036Z,0.52
2023-04-22T04:53:43.090Z,0.53
2023-04-22T04:54:43.169Z,0.52
2023-04-22T04:55:43.235Z,0.54
2023-04-22T04:56:43.252Z,0.53
2023-04-22T04:57:43.285Z,0.53
2023-04-22T04:58:43.328Z,0.53
2023-04-22T04:59:43.372Z,0.53
2023-04-22T05:00:43.412Z,0.53
2023-04-22T05:01:43.481Z,0.54
2023-04-22T05:02:43.619Z,0.52
2023-04-22T05:03:43.679Z,0.54
2023-04-22T05:04:43.748Z,0.54
2023-04-22T05:05:43.616Z,0.55
2023-04-22T05:06:43.677Z,0.55
2023-04-22T05:07:43.692Z,0.54
2023-04-22T05:08:43.762Z,0.54
2023-04-22T05:09:43.766Z,0.54
2023-04-22T05:10:43.862Z,0.54
2023-04-22T05:11:43.883Z,0.54
2023-04-22T05:12:43.917Z,0.54
2023-04-22T05:13:43.956Z,0.53
2023-04-22T05:14:44.018Z,0.54
2023-04-22T05:15:44.131Z,0.52
2023-04-22T05:16:44.095Z,0.52
2023-04-22T05:17:44.193Z,0.53
2023-04-22T05:18:44.133Z,0.53
2023-04-22T05:19:44.204Z,0.53
2023-04-22T05:20:44.236Z,0.53
2023-04-22T05:21:44.276Z,0.52
2023-04-22T05:22:44.344Z,0.52
2023-04-22T05:23:44.369Z,0.52
2023-04-22T05:24:44.429Z,0.52
2023-04-22T05:25:44.432Z,0.51
2023-04-22T05:26:44.477Z,0.53
2023-04-22T05:27:44.492Z,0.51
2023-04-22T05:28:44.555Z,0.52
2023-04-22T05:29:44.554Z,0.51
2023-04-22T05:30:44.639Z,0.51
2023-04-22T05:31:44.664Z,0.51
2023-04-22T05:32:44.746Z,0.53
2023-04-22T05:33:44.752Z,0.51
2023-04-22T05:34:44.783Z,0.52
2023-04-22T05:35:44.811Z,0.51
2023-04-22T05:36:44.840Z,0.51
2023-04-22T05:37:44.887Z,0.51
2023-04-22T05:38:44.942Z,0.51
2023-04-22T05:39:44.974Z,0.51
2023-04-22T05:40:44.994Z,0.51
2023-04-22T05:41:46.983Z,0.50
2023-04-22T05:42:45.040Z,0.50
2023-04-22T05:43:45.091Z,0.50
2023-04-22T05:44:45.139Z,0.51
2023-04-22T05:45:45.180Z,0.51
2023-04-22T05:46:45.207Z,0.52
2023-04-22T05:47:45.264Z,0.51
2023-04-22T05:48:45.255Z,0.51
2023-04-22T05:49:45.290Z,0.51
2023-04-22T05:50:45.350Z,0.50
2023-04-22T05:51:45.360Z,0.53
2023-04-22T05:52:45.429Z,0.51
2023-04-22T05:53:45.410Z,0.50
2023-04-22T05:54:45.490Z,0.51
2023-04-22T05:55:45.506Z,0.51
2023-04-22T05:56:45.520Z,0.51
2023-04-22T05:57:45.566Z,0.51
2023-04-22T05:58:45.573Z,0.51
2023-04-22T05:59:45.606Z,0.50
2023-04-22T06:00:45.676Z,0.51
2023-04-22T06:01:45.748Z,0.51
2023-04-22T06:02:45.923Z,0.52
2023-04-22T06:03:46.031Z,0.53
2023-04-22T06:04:46.053Z,0.52
2023-04-22T06:05:45.876Z,0.54
2023-04-22T06:06:45.900Z,0.53
2023-04-22T06:07:45.929Z,0.53
2023-04-22T06:08:45.989Z,0.54
2023-04-22T06:09:46.030Z,0.54
2023-04-22T06:10:46.057Z,0.54
2023-04-22T06:11:46.088Z,0.55
2023-04-22T06:12:46.125Z,0.54
2023-04-22T06:13:46.150Z,0.54
2023-04-22T06:14:46.169Z,0.54
2023-04-22T06:15:46.269Z,0.53
2023-04-22T06:16:46.211Z,0.54
2023-04-22T06:17:46.344Z,0.54
2023-04-22T06:18:46.282Z,0.53
2023-04-22T06:19:46.332Z,0.54
2023-04-22T06:20:46.401Z,0.53
2023-04-22T06:21:46.407Z,0.53
2023-04-22T06:22:46.442Z,0.54
2023-04-22T06:23:46.466Z,0.52
2023-04-22T06:24:48.193Z,0.53
2023-04-22T06:25:46.544Z,0.53
2023-04-22T06:26:46.576Z,0.53
2023-04-22T06:27:46.609Z,0.54
2023-04-22T06:28:46.630Z,0.54
2023-04-22T06:29:46.684Z,0.54
2023-04-22T06:30:46.731Z,0.54
2023-04-22T06:31:46.765Z,0.54
2023-04-22T06:32:46.839Z,0.55
2023-04-22T06:33:46.785Z,0.55
2023-04-22T06:34:46.809Z,0.54
2023-04-22T06:35:46.870Z,0.55
2023-04-22T06:36:46.874Z,0.55
2023-04-22T06:37:46.923Z,0.55
2023-04-22T06:38:46.928Z,0.56
2023-04-22T06:39:46.960Z,0.56
2023-04-22T06:40:47.029Z,0.57
2023-04-22T06:41:47.005Z,0.55
2023-04-22T06:42:47.035Z,0.55
2023-04-22T06:43:47.100Z,0.55
2023-04-22T06:44:47.100Z,0.53
2023-04-22T06:45:47.137Z,0.55
2023-04-22T06:46:47.296Z,0.56
2023-04-22T06:47:47.250Z,0.54
2023-04-22T06:48:47.209Z,0.54
2023-04-22T06:49:47.260Z,0.55
2023-04-22T06:50:47.301Z,0.54
2023-04-22T06:51:47.299Z,0.54
2023-04-22T06:52:47.316Z,0.53
2023-04-22T06:53:47.423Z,0.55
2023-04-22T06:54:47.431Z,0.53
2023-04-22T06:55:47.449Z,0.53
2023-04-22T06:56:47.468Z,0.53
2023-04-22T06:57:47.490Z,0.53
2023-04-22T06:58:47.525Z,0.54
2023-04-22T06:59:47.567Z,0.53
2023-04-22T07:00:47.620Z,0.55
2023-04-22T07:01:47.634Z,0.53
2023-04-22T07:02:47.716Z,0.53
2023-04-22T07:03:47.782Z,0.54
2023-04-22T07:04:47.747Z,0.52
2023-04-22T07:05:47.767Z,0.55
2023-04-22T07:06:47.794Z,0.54
2023-04-22T07:07:47.815Z,0.53
2023-04-22T07:08:47.834Z,0.53
2023-04-22T07:09:47.853Z,0.53
2023-04-22T07:10:47.872Z,0.53
2023-04-22T07:11:47.910Z,0.52
2023-04-22T07:12:47.971Z,0.54
2023-04-22T07:13:47.963Z,0.53
2023-04-22T07:14:48.029Z,0.53
2023-04-22T07:15:48.092Z,0.53
2023-04-22T07:16:48.237Z,0.52
2023-04-22T07:17:48.135Z,0.52
2023-04-22T07:18:48.147Z,0.51
2023-04-22T07:19:48.162Z,0.52
2023-04-22T07:20:48.225Z,0.50
2023-04-22T07:21:48.225Z,0.51
2023-04-22T07:22:48.248Z,0.50
2023-04-22T07:23:48.298Z,0.52
2023-04-22T07:24:48.316Z,0.51
2023-04-22T07:25:48.394Z,0.51
2023-04-22T07:26:48.405Z,0.52
2023-04-22T07:27:48.414Z,0.52
2023-04-22T07:28:48.442Z,0.51
2023-04-22T07:29:48.476Z,0.52
2023-04-22T07:30:48.520Z,0.52
2023-04-22T07:31:48.619Z,0.51
2023-04-22T07:32:48.946Z,0.52
2023-04-22T07:33:48.616Z,0.51
2023-04-22T07:34:48.658Z,0.52
2023-04-22T07:35:48.695Z,0.50
2023-04-22T07:36:48.722Z,0.50
2023-04-22T07:37:48.734Z,0.52
2023-04-22T07:38:48.796Z,0.51
2023-04-22T07:39:48.815Z,0.51
2023-04-22T07:40:48.828Z,0.51
2023-04-22T07:41:48.880Z,0.51
2023-04-22T07:42:48.903Z,0.51
2023-04-22T07:43:48.920Z,0.51
2023-04-22T07:44:48.977Z,0.51
2023-04-22T07:45:49.028Z,0.50
2023-04-22T07:46:49.050Z,0.52
2023-04-22T07:47:49.079Z,0.51
2023-04-22T07:48:49.087Z,0.53
2023-04-22T07:49:49.087Z,0.50
2023-04-22T07:50:49.158Z,0.50
2023-04-22T07:51:49.187Z,0.52
2023-04-22T07:52:49.240Z,0.51
2023-04-22T07:53:49.303Z,0.51
2023-04-22T07:54:49.274Z,0.52
2023-04-22T07:55:49.334Z,0.53
2023-04-22T07:56:49.323Z,0.51
2023-04-22T07:57:49.353Z,0.52
2023-04-22T07:58:49.390Z,0.53
2023-04-22T07:59:49.443Z,0.51
2023-04-22T08:00:49.487Z,0.51
2023-04-22T08:01:49.511Z,0.52
2023-04-22T08:02:49.615Z,0.52
2023-04-22T08:03:49.622Z,0.53
2023-04-22T08:04:49.582Z,0.53
2023-04-22T08:05:49.598Z,0.51
2023-04-22T08:06:49.604Z,0.54
2023-04-22T08:07:49.631Z,0.53
2023-04-22T08:08:49.681Z,0.53
2023-04-22T08:09:49.710Z,0.54
2023-04-22T08:10:49.751Z,0.55
2023-04-22T08:11:49.773Z,0.52
2023-04-22T08:12:49.798Z,0.51
2023-04-22T08:13:49.801Z,0.53
2023-04-22T08:14:49.856Z,0.55
2023-04-22T08:15:49.923Z,0.53
2023-04-22T08:16:49.901Z,0.54
2023-04-22T08:17:49.986Z,0.53
2023-04-22T08:18:49.953Z,0.52
2023-04-22T08:19:49.967Z,0.53
2023-04-22T08:20:50.000Z,0.53
2023-04-22T08:21:50.034Z,0.53
2023-04-22T08:22:50.043Z,0.54
2023-04-22T08:23:50.037Z,0.52
2023-04-22T08:24:50.063Z,0.54
2023-04-22T08:25:50.166Z,0.54
2023-04-22T08:26:50.150Z,0.55
2023-04-22T08:27:50.169Z,0.52
2023-04-22T08:28:50.193Z,0.53
2023-04-22T08:29:50.244Z,0.53
2023-04-22T08:30:50.274Z,0.52
2023-04-22T08:31:50.289Z,0.52
2023-04-22T08:32:50.333Z,0.53
2023-04-22T08:33:50.316Z,0.50
2023-04-22T08:35:50.331Z,0.52
2023-04-22T08:36:50.393Z,0.51
2023-04-22T08:37:50.417Z,0.52
2023-04-22T08:38:50.435Z,0.51
2023-04-22T08:39:50.419Z,0.52
2023-04-22T08:40:50.468Z,0.52
2023-04-22T08:41:50.462Z,0.52
2023-04-22T08:42:50.517Z,0.52
2023-04-22T08:43:50.525Z,0.52
2023-04-22T08:44:50.548Z,0.52
2023-04-22T08:45:50.578Z,0.51
2023-04-22T08:46:50.614Z,0.51
2023-04-22T08:47:50.654Z,0.51
2023-04-22T08:48:50.643Z,0.51
2023-04-22T08:49:50.650Z,0.51
2023-04-22T08:50:50.671Z,0.51
2023-04-22T08:51:50.694Z,0.53
2023-04-22T08:52:50.722Z,0.52
2023-04-22T08:53:50.747Z,0.53
2023-04-22T08:54:50.768Z,0.52
2023-04-22T08:55:50.795Z,0.52
2023-04-22T08:56:50.800Z,0.53
2023-04-22T08:57:50.823Z,0.54
2023-04-22T08:58:50.830Z,0.54
2023-04-22T08:59:50.837Z,0.54
2023-04-22T09:00:50.893Z,0.53
2023-04-22T09:01:50.937Z,0.53
2023-04-22T09:02:51.014Z,0.54
2023-04-22T09:03:51.015Z,0.54
2023-04-22T09:04:50.974Z,0.55
2023-04-22T09:05:50.989Z,0.54
2023-04-22T09:06:50.941Z,0.54
2023-04-22T09:07:51.000Z,0.55
2023-04-22T09:08:50.967Z,0.55
2023-04-22T09:09:51.014Z,0.54
2023-04-22T09:10:51.023Z,0.54
2023-04-22T09:11:51.072Z,0.54
2023-04-22T09:12:51.069Z,0.52
2023-04-22T09:13:51.082Z,0.51
2023-04-22T09:14:51.076Z,0.51
2023-04-22T09:15:51.094Z,0.51
2023-04-22T09:16:51.264Z,0.53
2023-04-22T09:17:51.174Z,0.52
2023-04-22T09:18:51.138Z,0.50
2023-04-22T09:19:51.139Z,0.51
2023-04-22T09:20:51.177Z,0.50
2023-04-22T09:21:53.629Z,0.50
2023-04-22T09:22:51.175Z,0.52
2023-04-22T09:23:51.162Z,0.53
2023-04-22T09:24:51.145Z,0.51
2023-04-22T09:25:51.156Z,0.52
2023-04-22T09:26:51.157Z,0.52
2023-04-22T09:27:51.192Z,0.53
2023-04-22T09:28:51.106Z,0.53
2023-04-22T09:29:51.136Z,0.50
2023-04-22T09:30:51.122Z,0.51
2023-04-22T09:31:51.165Z,0.50
2023-04-22T09:32:51.141Z,0.51
2023-04-22T09:33:51.191Z,0.54
2023-04-22T09:34:51.090Z,0.52
2023-04-22T09:35:51.080Z,0.52
2023-04-22T09:36:51.074Z,0.50
2023-04-22T09:37:51.076Z,0.51
2023-04-22T09:38:51.062Z,0.50
2023-04-22T09:39:51.039Z,0.52
2023-04-22T09:40:51.077Z,0.52
2023-04-22T09:41:51.052Z,0.55
2023-04-22T09:42:51.049Z,0.54
2023-04-22T09:43:51.017Z,0.53
2023-04-22T09:44:51.028Z,0.53
2023-04-22T09:45:51.064Z,0.54
2023-04-22T09:46:51.010Z,0.55
2023-04-22T09:47:51.007Z,0.54
2023-04-22T09:48:50.997Z,0.52
2023-04-22T09:49:50.987Z,0.55
2023-04-22T09:50:50.990Z,0.58
2023-04-22T09:51:50.989Z,0.59
2023-04-22T09:52:50.941Z,0.58
2023-04-22T09:53:50.948Z,0.60
2023-04-22T09:54:50.972Z,0.58
2023-04-22T09:55:50.925Z,0.61
2023-04-22T09:56:50.982Z,0.63
2023-04-22T09:57:50.926Z,0.62
2023-04-22T09:58:50.938Z,0.63
2023-04-22T09:59:50.920Z,0.65
2023-04-22T10:00:51.017Z,0.64
2023-04-22T10:01:50.973Z,0.65
2023-04-22T10:02:51.019Z,0.63
2023-04-22T10:03:50.935Z,0.66
2023-04-22T10:04:50.905Z,0.66
2023-04-22T10:05:50.917Z,0.70
2023-04-22T10:06:50.922Z,0.66
2023-04-22T10:07:50.939Z,0.67
2023-04-22T10:08:50.885Z,0.65
2023-04-22T10:09:50.860Z,0.62
2023-04-22T10:10:50.839Z,0.64
2023-04-22T10:11:50.860Z,0.65
2023-04-22T10:12:50.889Z,0.65
2023-04-22T10:13:50.889Z,0.68
2023-04-22T10:14:50.802Z,0.67
2023-04-22T10:15:50.835Z,0.74
2023-04-22T10:16:50.863Z,0.74
2023-04-22T10:17:50.834Z,0.72
2023-04-22T10:18:50.811Z,0.71
2023-04-22T10:19:50.790Z,0.71
2023-04-22T10:20:50.789Z,0.73
2023-04-22T10:21:50.832Z,0.72
2023-04-22T10:22:50.771Z,0.74
2023-04-22T10:23:50.794Z,0.77
2023-04-22T10:24:50.777Z,0.76
2023-04-22T10:25:50.748Z,0.77
2023-04-22T10:26:50.756Z,0.77
2023-04-22T10:27:50.754Z,0.81
2023-04-22T10:28:50.737Z,0.82
2023-04-22T10:29:50.703Z,0.81
2023-04-22T10:30:50.779Z,0.84
2023-04-22T10:31:50.736Z,0.83
2023-04-22T10:32:50.806Z,0.81
2023-04-22T10:33:50.686Z,0.83
2023-04-22T10:34:50.709Z,0.86
2023-04-22T10:35:50.666Z,0.86
2023-04-22T10:36:50.673Z,0.85
2023-04-22T10:37:50.861Z,0.87
2023-04-22T10:38:50.677Z,0.89
2023-04-22T10:39:50.703Z,0.87
2023-04-22T10:40:50.731Z,0.89
2023-04-22T10:41:50.862Z,0.89
2023-04-22T10:42:50.655Z,0.88
2023-04-22T10:43:50.643Z,0.89
2023-04-22T10:44:50.631Z,0.86
2023-04-22T10:45:50.632Z,0.84
2023-04-22T10:46:50.611Z,0.83
2023-04-22T10:47:50.684Z,0.84
2023-04-22T10:48:50.598Z,0.83
2023-04-22T10:49:50.612Z,0.81
2023-04-22T10:50:50.596Z,0.83
2023-04-22T10:51:50.999Z,0.79
2023-04-22T10:52:50.578Z,0.78
2023-04-22T10:53:50.569Z,0.80
2023-04-22T10:54:50.554Z,0.78
2023-04-22T10:55:50.564Z,0.79
2023-04-22T10:56:57.636Z,0.77
2023-04-22T10:57:51.562Z,0.77
2023-04-22T10:58:50.546Z,0.78
2023-04-22T10:59:50.699Z,0.78
2023-04-22T11:00:53.906Z,0.82
2023-04-22T11:01:50.560Z,0.77
2023-04-22T11:02:50.610Z,0.78
2023-04-22T11:03:50.575Z,0.79
2023-04-22T11:04:50.519Z,0.79
2023-04-22T11:05:50.502Z,0.75
2023-04-22T11:06:50.486Z,0.79
2023-04-22T11:07:50.517Z,0.79
2023-04-22T11:08:50.509Z,0.77
2023-04-22T11:09:50.476Z,0.76
2023-04-22T11:10:50.472Z,0.76
2023-04-22T11:11:50.452Z,0.78
2023-04-22T11:12:50.463Z,0.77
2023-04-22T11:13:50.558Z,0.77
2023-04-22T11:14:50.418Z,0.77
2023-04-22T11:15:50.418Z,0.77
2023-04-22T11:16:50.417Z,0.77
2023-04-22T11:17:50.490Z,0.79
2023-04-22T11:18:50.395Z,0.75
2023-04-22T11:19:50.396Z,0.75
2023-04-22T11:20:50.368Z,0.72
2023-04-22T11:21:51.323Z,0.73
2023-04-22T11:22:50.360Z,0.72
2023-04-22T11:23:50.364Z,0.75
2023-04-22T11:24:50.364Z,0.75
2023-04-22T11:25:50.353Z,0.74
2023-04-22T11:26:50.364Z,0.74
2023-04-22T11:27:50.349Z,0.73
2023-04-22T11:28:50.350Z,0.73
2023-04-22T11:29:50.329Z,0.69
2023-04-22T11:30:50.340Z,0.69
2023-04-22T11:31:50.359Z,0.70
2023-04-22T11:32:50.477Z,0.70
2023-04-22T11:33:50.480Z,0.66
2023-04-22T11:34:50.300Z,0.72
2023-04-22T11:35:50.270Z,0.70
2023-04-22T11:36:50.290Z,0.73
2023-04-22T11:37:50.285Z,0.72
2023-04-22T11:38:50.251Z,0.71
2023-04-22T11:40:13.148Z,0.69
2023-04-22T11:40:51.267Z,0.69
2023-04-22T11:41:50.241Z,0.70
2023-04-22T11:42:50.223Z,0.71
2023-04-22T11:43:50.230Z,0.70
2023-04-22T11:44:50.224Z,0.72
2023-04-22T11:45:50.238Z,0.73
2023-04-22T11:46:50.235Z,0.75
2023-04-22T11:47:50.253Z,0.76
2023-04-22T11:48:50.194Z,0.79
2023-04-22T11:49:50.199Z,0.78
2023-04-22T11:50:50.192Z,0.79
2023-04-22T11:51:50.197Z,0.81
2023-04-22T11:52:50.190Z,0.82
2023-04-22T11:53:50.166Z,0.78
2023-04-22T11:54:50.179Z,0.76
2023-04-22T11:55:50.155Z,0.75
2023-04-22T11:56:50.155Z,0.71
2023-04-22T11:57:50.176Z,0.73
2023-04-22T11:58:50.232Z,0.72
2023-04-22T11:59:50.913Z,0.71
2023-04-22T12:00:50.395Z,0.70
2023-04-22T12:01:50.454Z,0.71
2023-04-22T12:02:50.627Z,0.71
2023-04-22T12:03:50.639Z,0.72
2023-04-22T12:04:50.600Z,0.69
2023-04-22T12:05:50.683Z,0.69
2023-04-22T12:06:50.717Z,0.69
2023-04-22T12:07:50.798Z,0.70
2023-04-22T12:08:50.848Z,0.73
2023-04-22T12:09:50.907Z,0.73
2023-04-22T12:10:50.936Z,0.73
2023-04-22T12:11:51.025Z,0.75
2023-04-22T12:12:51.072Z,0.75
2023-04-22T12:13:51.107Z,0.74
2023-04-22T12:14:51.201Z,0.74
2023-04-22T12:15:51.256Z,0.76
2023-04-22T12:16:51.347Z,0.77
2023-04-22T12:17:51.406Z,0.78
2023-04-22T12:18:51.457Z,0.76
2023-04-22T12:19:51.465Z,0.76
2023-04-22T12:20:51.521Z,0.79
2023-04-22T12:21:51.562Z,0.79
2023-04-22T12:22:51.609Z,0.79
2023-04-22T12:23:51.674Z,0.80
2023-04-22T12:24:51.732Z,0.80
2023-04-22T12:25:51.780Z,0.81
2023-04-22T12:26:51.842Z,0.83
2023-04-22T12:27:51.856Z,0.81
2023-04-22T12:28:51.906Z,0.82
2023-04-22T12:29:51.969Z,0.83
2023-04-22T12:30:52.005Z,0.81
2023-04-22T12:31:52.047Z,0.82
2023-04-22T12:32:52.117Z,0.81
2023-04-22T12:33:52.197Z,0.79
2023-04-22T12:34:52.196Z,0.80
2023-04-22T12:35:52.232Z,0.81
2023-04-22T12:36:52.320Z,0.80
2023-04-22T12:37:52.523Z,0.80
2023-04-22T12:38:52.331Z,0.79
2023-04-22T12:39:52.367Z,0.78
2023-04-22T12:40:52.421Z,0.80
2023-04-22T12:41:52.462Z,0.80
2023-04-22T12:42:52.510Z,0.78
2023-04-22T12:43:52.708Z,0.77
2023-04-22T12:44:52.550Z,0.76
2023-04-22T12:45:52.638Z,0.78
2023-04-22T12:46:52.737Z,0.78
2023-04-22T12:47:52.688Z,0.79
2023-04-22T12:48:53.391Z,0.76
2023-04-22T12:49:52.681Z,0.78
2023-04-22T12:50:52.748Z,0.79
2023-04-22T12:51:52.786Z,0.79
2023-04-22T12:52:52.782Z,0.81
2023-04-22T12:53:52.842Z,0.80
2023-04-22T12:54:52.842Z,0.81
2023-04-22T12:55:52.881Z,0.80
2023-04-22T12:56:52.915Z,0.80
2023-04-22T12:57:52.943Z,0.81
2023-04-22T12:58:52.955Z,0.80
2023-04-22T12:59:52.978Z,0.82
2023-04-22T13:00:52.988Z,0.83
2023-04-22T13:01:53.068Z,0.81
2023-04-22T13:02:53.303Z,0.82
2023-04-22T13:03:53.301Z,0.81
2023-04-22T13:04:53.085Z,0.81
2023-04-22T13:05:53.149Z,0.80
2023-04-22T13:06:53.187Z,0.78
2023-04-22T13:08:53.224Z,0.79
2023-04-22T13:09:53.208Z,0.78
2023-04-22T13:10:53.172Z,0.80
2023-04-22T13:11:53.181Z,0.78
2023-04-22T13:12:53.200Z,0.77
2023-04-22T13:13:53.131Z,0.74
2023-04-22T13:14:53.131Z,0.77
2023-04-22T13:15:53.563Z,0.76
2023-04-22T13:16:53.152Z,0.77
2023-04-22T13:17:53.144Z,0.73
2023-04-22T13:18:53.125Z,0.73
2023-04-22T13:19:53.092Z,0.75
2023-04-22T13:20:53.092Z,0.74